Time;durP1;ratioP1;P1;durP2;ratioP2;P2;SDS_P1;SDS_P2;PMS_P1;PMS_P2;Temp;Humidity;BMP_temperature;BMP_pressure;BME280_temperature;BME280_humidity;BME280_pressure;Samples;Min_cycle;Max_cycle;Signal;HPM_P1;HPM_P2
2023/04/23 00:01:53;;;;;;;12.33;8.43;;;14.70;99.90;;;;;;5012111;28;20550;-54
2023/04/23 00:04:22;;;;;;;9.60;8.57;;;14.60;99.90;;;;;;5012640;28;20991;-53
2023/04/23 00:06:49;;;;;;;12.83;8.20;;;14.50;99.90;;;;;;5011816;28;20468;-53
2023/04/23 00:09:18;;;;;;;8.90;7.83;;;14.60;99.90;;;;;;5011561;28;20494;-52
2023/04/23 00:11:45;;;;;;;14.53;9.10;;;14.60;99.90;;;;;;5011516;28;20506;-52
2023/04/23 00:14:12;;;;;;;17.40;8.67;;;14.60;99.90;;;;;;5007028;28;20523;-53
2023/04/23 00:16:40;;;;;;;9.40;8.50;;;14.50;99.90;;;;;;5009056;28;20472;-53
2023/04/23 00:19:06;;;;;;;17.70;9.10;;;14.60;99.90;;;;;;5010871;28;20464;-52
2023/04/23 00:21:33;;;;;;;24.63;10.03;;;14.60;99.90;;;;;;5011749;28;20487;-53
2023/04/23 00:24:00;;;;;;;9.43;8.53;;;14.50;99.90;;;;;;5004950;28;20513;-53
2023/04/23 00:26:28;;;;;;;9.50;8.53;;;14.60;99.90;;;;;;5008776;28;20510;-52
2023/04/23 00:28:54;;;;;;;8.77;7.93;;;14.60;99.90;;;;;;5008642;28;20463;-57
2023/04/23 00:31:23;;;;;;;12.53;8.93;;;14.60;99.90;;;;;;5009797;28;20535;-52
2023/04/23 00:33:49;;;;;;;11.23;8.60;;;14.60;99.90;;;;;;4998693;28;20457;-52
2023/04/23 00:36:16;;;;;;;13.83;8.20;;;14.60;99.90;;;;;;5007355;28;20517;-53
2023/04/23 00:38:42;;;;;;;9.67;8.10;;;14.60;99.90;;;;;;5010518;28;20460;-54
2023/04/23 00:41:09;;;;;;;10.50;8.30;;;14.60;99.90;;;;;;5010678;28;20480;-54
2023/04/23 00:43:37;;;;;;;15.30;9.13;;;14.60;99.90;;;;;;5012223;28;20502;-52
2023/04/23 00:46:04;;;;;;;9.13;7.97;;;14.60;99.90;;;;;;5012495;28;20475;-53
2023/04/23 00:48:33;;;;;;;9.67;7.97;;;14.60;99.90;;;;;;5012553;28;20942;-53
2023/04/23 00:51:00;;;;;;;9.00;7.90;;;14.60;99.90;;;;;;5010828;28;20537;-53
2023/04/23 00:53:26;;;;;;;17.23;9.10;;;14.60;99.90;;;;;;5011008;28;20526;-52
2023/04/23 00:55:53;;;;;;;9.33;7.93;;;14.60;99.90;;;;;;5011848;28;21167;-53
2023/04/23 00:58:21;;;;;;;17.53;9.57;;;14.60;99.90;;;;;;5012402;28;20506;-53
2023/04/23 01:00:50;;;;;;;9.87;8.47;;;14.60;99.90;;;;;;5012133;28;20506;-54
2023/04/23 01:03:20;;;;;;;12.37;8.90;;;14.60;99.90;;;;;;5012002;28;20463;-54
2023/04/23 01:05:48;;;;;;;12.70;7.90;;;14.70;99.90;;;;;;5010092;28;20462;-54
2023/04/23 01:08:16;;;;;;;15.80;10.23;;;14.70;99.90;;;;;;5008958;28;20491;-54
2023/04/23 01:10:44;;;;;;;11.13;7.90;;;14.70;99.90;;;;;;5011077;28;21215;-52
2023/04/23 01:13:12;;;;;;;11.73;8.60;;;14.70;99.90;;;;;;5012114;28;20440;-53
2023/04/23 01:15:39;;;;;;;15.90;8.57;;;14.70;99.90;;;;;;5010876;28;20523;-53
2023/04/23 01:18:07;;;;;;;14.33;8.40;;;14.60;99.90;;;;;;5010100;28;20558;-53
2023/04/23 01:20:34;;;;;;;13.00;8.73;;;14.70;99.90;;;;;;5011257;28;20537;-52
2023/04/23 01:23:02;;;;;;;18.23;8.50;;;14.70;99.90;;;;;;5012147;28;20447;-53
2023/04/23 01:25:29;;;;;;;10.73;7.53;;;14.70;99.90;;;;;;5010715;28;20468;-53
2023/04/23 01:27:56;;;;;;;18.90;8.50;;;14.70;99.90;;;;;;5011775;28;20502;-52
2023/04/23 01:30:23;;;;;;;9.27;7.67;;;14.70;99.90;;;;;;5011788;28;20524;-54
2023/04/23 01:32:50;;;;;;;15.60;8.43;;;14.60;99.90;;;;;;5011160;28;20491;-53
2023/04/23 01:35:17;;;;;;;9.53;8.57;;;14.60;99.90;;;;;;5011379;28;20522;-53
2023/04/23 01:37:45;;;;;;;9.07;8.17;;;14.60;99.90;;;;;;5010973;28;20520;-53
2023/04/23 01:40:13;;;;;;;11.50;8.50;;;14.60;99.90;;;;;;5006068;28;20512;-53
2023/04/23 01:42:40;;;;;;;11.23;7.80;;;14.60;99.90;;;;;;5012622;28;20499;-53
2023/04/23 01:45:08;;;;;;;10.50;8.17;;;14.50;99.90;;;;;;5015577;28;20512;-52
2023/04/23 01:47:35;;;;;;;11.40;9.07;;;14.50;99.90;;;;;;5014821;28;20463;-53
2023/04/23 01:50:04;;;;;;;13.03;8.77;;;14.30;99.90;;;;;;5006535;28;20538;-53
2023/04/23 01:52:30;;;;;;;15.23;8.57;;;14.10;99.90;;;;;;5013449;28;20459;-53
2023/04/23 01:54:57;;;;;;;10.13;8.10;;;14.10;99.90;;;;;;5011360;28;20495;-53
2023/04/23 01:57:25;;;;;;;16.03;8.73;;;14.00;99.90;;;;;;5010038;28;20488;-52
2023/04/23 01:59:52;;;;;;;15.30;8.93;;;14.00;99.90;;;;;;5014917;28;20455;-53
2023/04/23 02:02:19;;;;;;;13.77;8.43;;;14.00;99.90;;;;;;5013367;28;20463;-52
2023/04/23 02:04:48;;;;;;;12.90;8.63;;;13.90;99.60;;;;;;5012276;28;20460;-53
2023/04/23 02:07:14;;;;;;;10.30;8.40;;;13.90;99.90;;;;;;5011011;28;20542;-53
2023/04/23 02:09:41;;;;;;;9.80;8.33;;;13.90;99.90;;;;;;5013768;28;20573;-52
2023/04/23 02:12:07;;;;;;;13.60;7.87;;;13.90;99.90;;;;;;5064606;22;20579;-50
2023/04/23 02:14:35;;;;;;;8.80;7.80;;;14.00;99.90;;;;;;5054049;28;20504;-51
2023/04/23 02:17:02;;;;;;;11.23;8.53;;;14.00;99.90;;;;;;5038393;28;20539;-51
2023/04/23 02:19:30;;;;;;;8.23;7.23;;;14.00;99.90;;;;;;5053565;28;20486;-51
2023/04/23 02:21:57;;;;;;;12.33;8.87;;;14.10;99.90;;;;;;5049278;28;20529;-50
2023/04/23 02:24:23;;;;;;;9.70;8.40;;;14.10;99.90;;;;;;5046664;28;20463;-50
2023/04/23 02:26:50;;;;;;;9.73;7.90;;;14.00;99.90;;;;;;5053248;28;20825;-50
2023/04/23 02:29:16;;;;;;;14.27;7.97;;;14.10;96.70;;;;;;5048677;28;20824;-50
2023/04/23 02:31:44;;;;;;;9.80;7.63;;;14.00;96.70;;;;;;5053674;28;20489;-50
2023/04/23 02:34:11;;;;;;;11.60;8.33;;;14.10;88.80;;;;;;5045880;28;20526;-50
2023/04/23 02:36:38;;;;;;;9.17;6.67;;;14.00;81.70;;;;;;5044633;28;21095;-50
2023/04/23 02:39:04;;;;;;;9.43;7.30;;;14.00;79.50;;;;;;5051230;28;20914;-51
2023/04/23 02:41:31;;;;;;;10.30;7.73;;;14.10;43.10;;;;;;5053272;28;20462;-51
2023/04/23 02:43:58;;;;;;;8.33;7.13;;;14.00;99.90;;;;;;5051869;28;20493;-51
2023/04/23 02:46:25;;;;;;;8.57;7.67;;;14.00;99.90;;;;;;5052588;28;20454;-51
2023/04/23 02:48:53;;;;;;;14.93;7.70;;;13.90;99.90;;;;;;5053225;28;20484;-51
2023/04/23 02:51:19;;;;;;;12.43;7.50;;;14.00;99.90;;;;;;5047526;28;20475;-51
2023/04/23 02:53:46;;;;;;;8.77;6.80;;;14.00;99.90;;;;;;5047590;28;20457;-51
2023/04/23 02:56:12;;;;;;;13.53;6.63;;;14.00;99.90;;;;;;5054245;28;20556;-51
2023/04/23 02:58:39;;;;;;;15.97;7.10;;;14.00;99.90;;;;;;5050681;28;20463;-49
2023/04/23 03:01:06;;;;;;;10.33;6.93;;;14.00;99.90;;;;;;5054167;28;20469;-51
2023/04/23 03:03:33;;;;;;;7.77;6.90;;;14.00;99.90;;;;;;5053826;28;20496;-50
2023/04/23 03:06:02;;;;;;;10.43;7.87;;;14.00;99.90;;;;;;5052172;28;20567;-50
2023/04/23 03:08:29;;;;;;;10.10;6.90;;;14.10;99.90;;;;;;5052713;28;20837;-50
2023/04/23 03:10:55;;;;;;;7.60;6.97;;;14.10;99.90;;;;;;5053565;28;20477;-51
2023/04/23 03:13:22;;;;;;;8.20;7.40;;;14.10;99.90;;;;;;5054164;28;20499;-51
2023/04/23 03:15:49;;;;;;;10.03;6.43;;;14.10;99.90;;;;;;5053894;28;20509;-51
2023/04/23 03:18:16;;;;;;;13.87;7.53;;;14.10;99.90;;;;;;5053656;28;20511;-51
2023/04/23 03:20:43;;;;;;;7.67;6.87;;;14.10;99.90;;;;;;5048430;28;20470;-50
2023/04/23 03:23:10;;;;;;;9.80;6.70;;;14.10;99.90;;;;;;5053062;28;20508;-50
2023/04/23 03:25:37;;;;;;;8.60;7.20;;;14.10;99.90;;;;;;5053578;28;20512;-50
2023/04/23 03:28:04;;;;;;;10.07;7.30;;;14.10;99.90;;;;;;5053541;28;20504;-50
2023/04/23 03:30:31;;;;;;;9.10;7.33;;;14.10;99.90;;;;;;5053392;28;20442;-50
2023/04/23 03:33:01;;;;;;;9.97;7.20;;;14.10;99.90;;;;;;5053907;28;20438;-50
2023/04/23 03:35:27;;;;;;;12.23;6.80;;;14.10;99.90;;;;;;5051114;28;20541;-51
2023/04/23 03:37:54;;;;;;;9.17;7.03;;;14.10;99.90;;;;;;5052167;28;20465;-50
2023/04/23 03:40:22;;;;;;;8.80;6.97;;;14.10;99.90;;;;;;5053329;28;20888;-51
2023/04/23 03:42:49;;;;;;;8.40;6.67;;;14.10;99.90;;;;;;5053430;28;20466;-50
2023/04/23 03:45:16;;;;;;;7.20;6.50;;;14.10;99.90;;;;;;5052890;28;20517;-50
2023/04/23 03:47:43;;;;;;;9.97;6.57;;;14.10;99.90;;;;;;5052261;28;20462;-51
2023/04/23 03:50:11;;;;;;;6.50;5.90;;;14.10;99.90;;;;;;5051316;28;20535;-51
2023/04/23 03:52:38;;;;;;;10.80;6.50;;;14.10;99.90;;;;;;5048818;28;20473;-50
2023/04/23 03:55:05;;;;;;;13.87;6.97;;;14.10;99.90;;;;;;5051588;28;20486;-50
2023/04/23 03:57:33;;;;;;;6.93;6.33;;;14.10;99.90;;;;;;5052807;28;20493;-50
2023/04/23 04:00:00;;;;;;;17.93;6.40;;;14.10;99.90;;;;;;5052239;28;20994;-51
2023/04/23 04:02:26;;;;;;;9.63;7.07;;;14.10;99.90;;;;;;5049929;28;20884;-51
2023/04/23 04:04:53;;;;;;;6.97;6.27;;;14.10;1.40;;;;;;5051878;28;20571;-50
2023/04/23 04:07:20;;;;;;;7.87;7.10;;;14.10;1.40;;;;;;5052799;28;20939;-52
2023/04/23 04:09:48;;;;;;;9.47;6.23;;;14.10;99.90;;;;;;5052327;28;20458;-52
2023/04/23 04:12:14;;;;;;;8.60;6.50;;;14.10;99.90;;;;;;5047509;28;20493;-51
2023/04/23 04:14:42;;;;;;;9.87;6.73;;;14.10;99.90;;;;;;5052127;28;20463;-51
2023/04/23 04:17:09;;;;;;;7.97;6.20;;;14.10;99.90;;;;;;5050934;28;20546;-51
2023/04/23 04:19:36;;;;;;;8.37;6.30;;;14.10;99.90;;;;;;5043239;28;20461;-52
2023/04/23 04:22:02;;;;;;;10.60;7.23;;;14.20;99.90;;;;;;5040966;28;20552;-52
2023/04/23 04:24:31;;;;;;;10.10;6.93;;;14.20;99.90;;;;;;5052197;28;20798;-51
2023/04/23 04:26:58;;;;;;;9.57;7.20;;;14.30;99.90;;;;;;5052474;28;20442;-51
2023/04/23 04:29:25;;;;;;;10.83;6.43;;;14.30;99.90;;;;;;5047815;28;20974;-52
2023/04/23 04:31:53;;;;;;;15.90;6.00;;;14.40;99.90;;;;;;5048845;28;20493;-51
2023/04/23 04:34:20;;;;;;;9.47;6.63;;;14.40;99.90;;;;;;5051992;28;20466;-51
2023/04/23 04:36:46;;;;;;;6.57;5.90;;;14.40;99.90;;;;;;5052677;28;20531;-52
2023/04/23 04:39:13;;;;;;;6.50;5.80;;;14.20;99.90;;;;;;5052461;28;20450;-51
2023/04/23 04:41:41;;;;;;;6.30;5.70;;;14.00;76.40;;;;;;5051896;28;20565;-50
2023/04/23 04:44:08;;;;;;;6.40;5.80;;;13.80;46.60;;;;;;5051887;28;20458;-51
2023/04/23 04:46:39;;;;;;;9.43;7.43;;;13.70;99.90;;;;;;5047848;28;20885;-50
2023/04/23 04:49:07;;;;;;;7.83;7.07;;;13.70;99.90;;;;;;5047774;28;20557;-52
2023/04/23 04:51:34;;;;;;;14.20;7.03;;;13.60;99.90;;;;;;5051756;28;20476;-52
2023/04/23 04:54:01;;;;;;;10.60;7.13;;;13.50;99.90;;;;;;5051787;28;20494;-52
2023/04/23 04:56:27;;;;;;;9.53;6.50;;;13.50;99.90;;;;;;5052095;28;20489;-51
2023/04/23 04:58:54;;;;;;;10.80;6.80;;;13.40;99.90;;;;;;5050197;28;20991;-51
2023/04/23 05:01:22;;;;;;;20.40;7.83;;;13.30;99.90;;;;;;5051883;28;20468;-50
2023/04/23 05:03:48;;;;;;;10.27;6.87;;;13.30;99.90;;;;;;5051458;28;20962;-51
2023/04/23 05:06:16;;;;;;;9.40;7.90;;;13.20;99.90;;;;;;5042171;28;20538;-51
2023/04/23 05:08:46;;;;;;;17.77;9.70;;;13.10;92.40;;;;;;5051377;28;21009;-51
2023/04/23 05:11:13;;;;;;;13.43;8.10;;;13.00;73.90;;;;;;5051038;28;20557;-52
2023/04/23 05:13:40;;;;;;;8.17;7.37;;;13.00;54.90;;;;;;5050798;28;20484;-51
2023/04/23 05:16:07;;;;;;;9.17;7.50;;;13.00;27.30;;;;;;5051458;28;20478;-52
2023/04/23 05:18:34;;;;;;;12.70;8.40;;;13.00;99.90;;;;;;5047533;28;20512;-51
2023/04/23 05:21:00;;;;;;;11.80;8.40;;;12.90;99.90;;;;;;5043215;28;20477;-51
2023/04/23 05:23:28;;;;;;;10.97;8.67;;;12.80;99.90;;;;;;5049311;28;20470;-52
2023/04/23 05:25:57;;;;;;;9.00;7.47;;;12.80;99.90;;;;;;5046222;28;20473;-52
2023/04/23 05:28:23;;;;;;;8.17;7.37;;;12.80;99.90;;;;;;5051802;28;20541;-51
2023/04/23 05:30:50;;;;;;;12.77;8.70;;;12.90;99.90;;;;;;5049781;28;20466;-52
2023/04/23 05:33:17;;;;;;;9.00;7.80;;;12.90;99.90;;;;;;5051541;28;20449;-52
2023/04/23 05:35:43;;;;;;;10.00;7.00;;;12.90;99.90;;;;;;5051103;28;20446;-52
2023/04/23 05:38:10;;;;;;;11.20;7.70;;;12.90;99.90;;;;;;5050075;28;20495;-51
2023/04/23 05:40:38;;;;;;;10.67;7.43;;;12.90;99.90;;;;;;5045772;28;20494;-51
2023/04/23 05:43:05;;;;;;;8.40;7.60;;;13.00;99.90;;;;;;5047109;28;20462;-52
2023/04/23 05:45:32;;;;;;;11.40;7.03;;;13.00;99.90;;;;;;5050063;28;20451;-52
2023/04/23 05:47:58;;;;;;;10.27;7.57;;;13.00;99.90;;;;;;5047843;28;20466;-51
2023/04/23 05:50:25;;;;;;;7.17;6.47;;;13.00;99.90;;;;;;5047451;28;20620;-51
2023/04/23 05:52:52;;;;;;;9.27;6.73;;;13.00;99.90;;;;;;5047336;28;21000;-52
2023/04/23 05:55:19;;;;;;;7.93;7.20;;;13.10;99.90;;;;;;5043922;28;20557;-52
2023/04/23 05:57:47;;;;;;;9.07;7.30;;;13.10;99.90;;;;;;5049275;28;20510;-51
2023/04/23 06:00:15;;;;;;;10.50;7.13;;;13.10;99.90;;;;;;5049993;28;20538;-51
2023/04/23 06:02:43;;;;;;;8.43;6.93;;;13.10;99.90;;;;;;5048682;28;20569;-51
2023/04/23 06:05:10;;;;;;;7.33;6.57;;;13.20;99.90;;;;;;5046879;28;20818;-53
2023/04/23 06:07:37;;;;;;;13.53;6.30;;;13.10;99.90;;;;;;5047296;28;20542;-51
2023/04/23 06:10:04;;;;;;;7.00;6.47;;;13.10;99.90;;;;;;5049749;28;20462;-52
2023/04/23 06:12:31;;;;;;;7.10;6.50;;;13.10;99.90;;;;;;5042661;28;20851;-50
2023/04/23 06:14:59;;;;;;;10.47;6.40;;;13.10;99.90;;;;;;5047572;28;20465;-52
2023/04/23 06:17:26;;;;;;;8.30;6.10;;;13.10;99.90;;;;;;5048263;28;21011;-51
2023/04/23 06:19:52;;;;;;;7.87;6.53;;;13.10;99.90;;;;;;5044457;28;20492;-51
2023/04/23 06:22:19;;;;;;;10.93;7.50;;;13.10;99.90;;;;;;5048108;28;20829;-51
2023/04/23 06:24:45;;;;;;;5.90;5.40;;;13.20;99.90;;;;;;5045194;28;20465;-51
2023/04/23 06:27:13;;;;;;;9.90;6.57;;;13.20;99.90;;;;;;5049791;28;20531;-50
2023/04/23 06:29:40;;;;;;;10.57;6.93;;;13.20;99.90;;;;;;5053908;28;20861;-49
2023/04/23 06:32:07;;;;;;;6.10;5.50;;;13.20;99.90;;;;;;5053182;28;20488;-49
2023/04/23 06:34:34;;;;;;;9.33;6.73;;;13.20;99.90;;;;;;5053449;28;20454;-51
2023/04/23 06:37:01;;;;;;;10.87;7.37;;;13.20;99.90;;;;;;5044554;28;20535;-52
2023/04/23 06:39:28;;;;;;;8.23;6.70;;;13.20;99.90;;;;;;5052499;28;20486;-50
2023/04/23 06:41:55;;;;;;;7.60;6.87;;;13.20;99.90;;;;;;5047818;28;20476;-52
2023/04/23 06:44:21;;;;;;;8.10;7.23;;;13.30;99.90;;;;;;5053908;28;20516;-52
2023/04/23 06:46:48;;;;;;;9.93;7.20;;;13.30;99.90;;;;;;5054552;28;20449;-52
2023/04/23 06:49:16;;;;;;;7.40;6.70;;;13.30;99.90;;;;;;5051371;28;21234;-51
2023/04/23 06:51:43;;;;;;;7.90;6.30;;;13.30;99.90;;;;;;5052307;28;20849;-52
2023/04/23 06:54:09;;;;;;;10.07;6.70;;;13.30;99.90;;;;;;5053954;28;20449;-52
2023/04/23 06:56:36;;;;;;;7.80;7.00;;;13.40;99.90;;;;;;5054207;28;20535;-53
2023/04/23 06:59:02;;;;;;;8.30;6.33;;;13.30;99.90;;;;;;5054057;28;20868;-52
2023/04/23 07:01:29;;;;;;;7.33;6.03;;;13.30;99.90;;;;;;5054404;28;20878;-52
2023/04/23 07:03:56;;;;;;;8.23;7.10;;;13.30;99.90;;;;;;5050358;28;20821;-52
2023/04/23 07:06:23;;;;;;;8.20;6.10;;;13.30;99.90;;;;;;5045907;28;20462;-52
2023/04/23 07:08:50;;;;;;;9.07;6.70;;;13.20;99.90;;;;;;5049638;28;20486;-51
2023/04/23 07:11:19;;;;;;;16.17;6.73;;;13.20;99.90;;;;;;5051002;28;20494;-52
2023/04/23 07:13:46;;;;;;;7.63;6.90;;;13.20;99.90;;;;;;5052639;28;20462;-50
2023/04/23 07:16:12;;;;;;;7.23;6.40;;;13.20;99.90;;;;;;5053069;28;20815;-55
2023/04/23 07:18:39;;;;;;;9.77;6.40;;;13.10;99.90;;;;;;5052744;28;20481;-56
2023/04/23 07:21:05;;;;;;;10.60;6.63;;;13.10;99.90;;;;;;5051224;28;20504;-55
2023/04/23 07:23:33;;;;;;;10.80;7.73;;;13.10;99.90;;;;;;5053541;28;20454;-56
2023/04/23 07:26:00;;;;;;;7.00;6.40;;;13.10;99.90;;;;;;5051881;28;20940;-57
2023/04/23 07:28:27;;;;;;;9.50;7.70;;;13.10;99.90;;;;;;5050297;28;20492;-54
2023/04/23 07:30:53;;;;;;;17.17;10.77;;;13.10;99.90;;;;;;5053087;28;20474;-54
2023/04/23 07:33:20;;;;;;;9.97;8.90;;;13.10;99.90;;;;;;5051854;28;20519;-54
2023/04/23 07:35:47;;;;;;;9.77;7.80;;;13.30;99.90;;;;;;5052509;28;20466;-53
2023/04/23 07:38:13;;;;;;;7.57;6.87;;;13.30;99.90;;;;;;5049624;28;20505;-55
2023/04/23 07:40:41;;;;;;;9.90;7.53;;;13.30;99.90;;;;;;5048942;28;20501;-56
2023/04/23 07:43:08;;;;;;;9.43;7.30;;;13.30;99.90;;;;;;5051724;28;20515;-55
2023/04/23 07:45:34;;;;;;;18.37;7.27;;;13.30;99.90;;;;;;5046990;28;20465;-54
2023/04/23 07:48:01;;;;;;;10.50;6.40;;;13.40;99.90;;;;;;5038348;28;20462;-54
2023/04/23 07:50:29;;;;;;;6.70;6.00;;;13.30;99.90;;;;;;5044351;28;20877;-54
2023/04/23 07:52:55;;;;;;;10.67;6.50;;;13.30;99.90;;;;;;5047417;28;20473;-54
2023/04/23 07:55:22;;;;;;;6.47;5.97;;;13.40;99.90;;;;;;5043529;28;20555;-54
2023/04/23 07:57:50;;;;;;;10.30;6.90;;;13.40;99.90;;;;;;5051494;28;20883;-55
2023/04/23 08:00:17;;;;;;;8.13;6.03;;;13.40;99.90;;;;;;5044909;28;20831;-55
2023/04/23 08:02:44;;;;;;;9.07;6.50;;;13.40;99.90;;;;;;5041849;28;21086;-54
2023/04/23 08:05:11;;;;;;;7.17;6.53;;;13.50;99.90;;;;;;5038500;28;20540;-54
2023/04/23 08:07:38;;;;;;;8.83;6.33;;;13.50;99.90;;;;;;5026777;28;20473;-53
2023/04/23 08:10:06;;;;;;;6.50;6.00;;;13.50;99.90;;;;;;5048605;28;20481;-53
2023/04/23 08:12:35;;;;;;;11.53;6.80;;;13.40;99.90;;;;;;5070496;22;20489;-58
2023/04/23 08:15:03;;;;;;;8.07;6.20;;;13.40;99.90;;;;;;5068853;28;20479;-53
2023/04/23 08:17:30;;;;;;;7.00;5.63;;;13.40;99.90;;;;;;5072216;28;20473;-53
2023/04/23 08:20:07;;;;;;;9.17;7.40;;;13.40;99.90;;;;;;5075544;28;20457;-50
2023/04/23 08:22:33;;;;;;;8.77;7.20;;;13.40;99.90;;;;;;5068949;28;20572;-53
2023/04/23 08:25:01;;;;;;;7.80;6.20;;;13.40;99.90;;;;;;5071738;28;20862;-50
2023/04/23 08:27:29;;;;;;;10.30;6.63;;;13.40;99.90;;;;;;5071699;28;20453;-56
2023/04/23 08:29:55;;;;;;;9.50;7.97;;;13.40;99.90;;;;;;5072304;28;20454;-57
2023/04/23 08:32:25;;;;;;;11.90;7.40;;;13.40;99.90;;;;;;5060764;28;20489;-57
2023/04/23 08:34:51;;;;;;;10.10;7.70;;;13.40;99.90;;;;;;5072187;28;20453;-57
2023/04/23 08:37:18;;;;;;;9.00;7.33;;;13.40;99.90;;;;;;5085689;28;20533;-57
2023/04/23 08:39:45;;;;;;;9.20;8.30;;;13.40;99.90;;;;;;5069728;28;20445;-57
2023/04/23 08:42:18;;;;;;;8.90;7.20;;;13.40;99.90;;;;;;5078937;28;20477;-57
2023/04/23 08:44:46;;;;;;;11.90;8.03;;;13.40;99.90;;;;;;5078441;28;20479;-49
2023/04/23 08:47:17;;;;;;;8.80;8.00;;;13.50;99.90;;;;;;5088633;28;20434;-53
2023/04/23 08:49:49;;;;;;;13.53;8.23;;;13.50;99.90;;;;;;5075486;28;20563;-53
2023/04/23 08:52:18;;;;;;;11.93;8.17;;;13.50;99.90;;;;;;5074946;28;20477;-52
2023/04/23 08:54:48;;;;;;;14.23;8.63;;;13.50;99.90;;;;;;5067681;28;20488;-52
2023/04/23 08:57:16;;;;;;;8.70;7.60;;;13.50;99.90;;;;;;5070965;28;20590;-52
2023/04/23 08:59:43;;;;;;;8.50;7.60;;;13.50;99.90;;;;;;5069343;28;20495;-52
2023/04/23 09:02:10;;;;;;;11.57;8.00;;;13.50;99.90;;;;;;5066572;28;20509;-52
2023/04/23 09:04:37;;;;;;;12.57;7.80;;;13.50;99.90;;;;;;5063996;28;20497;-53
2023/04/23 09:07:06;;;;;;;8.90;7.87;;;13.40;99.90;;;;;;5067345;28;20472;-55
2023/04/23 09:09:34;;;;;;;8.60;7.43;;;13.40;99.90;;;;;;5067302;28;20507;-52
2023/04/23 09:12:01;;;;;;;6.23;5.73;;;13.30;99.90;;;;;;5062476;28;20541;-53
2023/04/23 09:14:28;;;;;;;6.07;5.43;;;13.20;99.90;;;;;;5062178;28;20456;-53
2023/04/23 09:16:55;;;;;;;11.47;8.47;;;13.20;99.90;;;;;;5071176;28;20461;-51
2023/04/23 09:19:23;;;;;;;8.93;5.87;;;13.10;99.90;;;;;;5076889;28;20505;-53
2023/04/23 09:21:51;;;;;;;19.83;10.53;;;13.10;99.90;;;;;;5072604;28;20474;-52
2023/04/23 09:24:21;;;;;;;31.10;18.53;;;12.90;99.90;;;;;;5069245;28;20465;-51
2023/04/23 09:26:50;;;;;;;7.63;6.83;;;12.90;99.90;;;;;;5075916;28;20505;-53
2023/04/23 09:29:18;;;;;;;19.40;15.70;;;12.80;99.90;;;;;;5072057;28;20517;-51
2023/04/23 09:31:46;;;;;;;9.40;8.50;;;12.80;99.90;;;;;;5070271;28;20477;-52
2023/04/23 09:34:15;;;;;;;5.10;4.57;;;12.80;99.90;;;;;;5080633;28;20464;-52
2023/04/23 09:36:42;;;;;;;4.23;3.70;;;12.80;99.90;;;;;;5071103;28;20492;-52
2023/04/23 09:39:12;;;;;;;10.83;4.27;;;12.80;99.90;;;;;;5069224;28;20558;-52
2023/04/23 09:41:40;;;;;;;4.30;3.90;;;12.80;99.90;;;;;;5071621;28;20469;-54
2023/04/23 09:44:07;;;;;;;3.93;3.63;;;12.90;99.90;;;;;;5068795;28;20461;-53
2023/04/23 09:46:36;;;;;;;3.80;3.57;;;12.90;99.90;;;;;;5069755;28;20971;-52
2023/04/23 09:49:06;;;;;;;3.80;3.50;;;13.00;99.90;;;;;;5069719;28;20457;-52
2023/04/23 09:51:33;;;;;;;3.90;3.67;;;13.00;99.90;;;;;;5065551;28;20566;-53
2023/04/23 09:54:01;;;;;;;3.53;3.33;;;12.90;99.90;;;;;;5069074;28;20535;-54
2023/04/23 09:56:28;;;;;;;4.10;3.03;;;12.90;99.90;;;;;;5059370;28;20556;-53
2023/04/23 09:58:56;;;;;;;3.03;2.80;;;13.00;99.90;;;;;;5064666;28;20521;-53
2023/04/23 10:01:28;;;;;;;3.57;3.37;;;12.80;99.90;;;;;;5068660;28;20520;-52
2023/04/23 10:03:55;;;;;;;3.47;3.30;;;12.80;99.90;;;;;;5066113;28;20465;-52
2023/04/23 10:06:28;;;;;;;3.90;3.60;;;12.80;99.90;;;;;;5071410;28;20460;-52
2023/04/23 10:08:56;;;;;;;3.43;3.23;;;12.80;99.90;;;;;;5071470;28;20923;-52
2023/04/23 10:11:24;;;;;;;2.83;2.73;;;12.80;99.90;;;;;;5065902;28;20851;-53
2023/04/23 10:13:52;;;;;;;3.67;3.37;;;12.80;99.90;;;;;;5070426;28;20473;-52
2023/04/23 10:16:21;;;;;;;3.47;3.27;;;12.90;99.90;;;;;;5071996;28;20461;-53
2023/04/23 10:18:50;;;;;;;4.03;3.73;;;13.00;99.90;;;;;;5076050;28;20511;-52
2023/04/23 10:21:19;;;;;;;3.63;3.43;;;13.00;99.90;;;;;;5071390;28;20488;-52
2023/04/23 10:23:48;;;;;;;4.13;3.83;;;13.10;99.90;;;;;;5076965;28;20466;-53
2023/04/23 10:26:16;;;;;;;4.00;3.80;;;13.10;99.90;;;;;;5098062;28;20444;-55
2023/04/23 10:28:45;;;;;;;3.80;3.60;;;13.10;99.90;;;;;;5083597;28;20464;-53
2023/04/23 10:31:12;;;;;;;5.73;3.47;;;13.00;99.90;;;;;;5075632;28;20488;-52
2023/04/23 10:33:42;;;;;;;2.97;2.87;;;13.00;99.90;;;;;;5073717;28;20915;-52
2023/04/23 10:36:09;;;;;;;3.13;2.93;;;13.10;99.90;;;;;;5074181;28;20520;-53
2023/04/23 10:38:36;;;;;;;3.73;3.43;;;13.20;99.90;;;;;;5074727;28;20513;-52
2023/04/23 10:41:04;;;;;;;4.00;3.37;;;13.30;99.90;;;;;;5075099;28;20992;-52
2023/04/23 10:43:30;;;;;;;3.80;3.60;;;13.30;99.90;;;;;;5073690;28;20542;-52
2023/04/23 10:45:57;;;;;;;4.03;3.83;;;13.50;99.90;;;;;;5074884;28;20476;-53
2023/04/23 10:48:23;;;;;;;5.17;4.50;;;13.70;99.90;;;;;;5075342;28;20472;-53
2023/04/23 10:50:57;;;;;;;4.60;4.20;;;13.80;99.90;;;;;;5074344;28;20824;-52
2023/04/23 10:53:25;;;;;;;5.23;4.83;;;14.10;99.90;;;;;;5073658;28;20525;-52
2023/04/23 10:56:05;;;;;;;4.90;4.50;;;14.10;99.90;;;;;;5072890;28;20460;-52
2023/04/23 10:58:48;;;;;;;4.63;4.33;;;14.10;99.90;;;;;;5074354;28;21001;-52
2023/04/23 11:01:14;;;;;;;5.10;4.77;;;14.10;99.90;;;;;;5054632;28;20982;-52
2023/04/23 11:03:41;;;;;;;5.00;4.63;;;14.00;99.90;;;;;;5054042;28;20939;-53
2023/04/23 11:06:14;;;;;;;5.93;5.33;;;13.80;99.90;;;;;;5061993;28;20461;-52
2023/04/23 11:08:51;;;;;;;10.37;5.90;;;13.80;99.90;;;;;;5073269;28;20461;-53
2023/04/23 11:11:17;;;;;;;6.10;5.60;;;13.70;99.90;;;;;;5074469;28;20460;-53
2023/04/23 11:13:52;;;;;;;7.03;6.50;;;13.60;99.90;;;;;;5074048;28;20503;-53
2023/04/23 11:16:22;;;;;;;6.87;6.27;;;13.60;99.90;;;;;;5073364;28;20552;-52
2023/04/23 11:19:01;;;;;;;7.90;7.30;;;13.60;99.90;;;;;;5074011;28;20480;-52
2023/04/23 11:22:00;;;;;;;7.77;6.97;;;13.60;99.90;;;;;;5074039;28;20487;-51
2023/04/23 11:24:31;;;;;;;8.70;7.90;;;13.60;99.90;;;;;;5063055;28;20454;-52
2023/04/23 11:26:59;;;;;;;9.67;8.13;;;13.60;99.90;;;;;;5085790;28;20453;-52
2023/04/23 11:29:27;;;;;;;9.20;8.40;;;13.50;99.90;;;;;;5094033;28;21045;-52
2023/04/23 11:31:55;;;;;;;9.90;8.97;;;13.60;99.90;;;;;;5091228;28;20483;-52
2023/04/23 11:34:23;;;;;;;9.47;8.57;;;13.40;99.90;;;;;;5078378;28;20476;-52
2023/04/23 11:36:52;;;;;;;7.03;6.43;;;13.50;99.90;;;;;;5073949;28;20445;-52
2023/04/23 11:39:22;;;;;;;5.40;5.00;;;13.30;99.90;;;;;;5071523;28;20566;-52
2023/04/23 11:41:51;;;;;;;4.67;4.37;;;13.10;99.90;;;;;;5073575;28;20469;-52
2023/04/23 11:44:17;;;;;;;5.47;4.97;;;13.00;99.90;;;;;;5070012;28;20553;-52
2023/04/23 11:46:46;;;;;;;5.67;5.27;;;12.80;99.90;;;;;;5070263;28;20518;-53
2023/04/23 11:49:13;;;;;;;4.80;4.50;;;12.70;99.90;;;;;;5072831;28;20506;-53
2023/04/23 11:51:43;;;;;;;5.10;4.80;;;12.70;99.90;;;;;;5073202;28;20483;-53
2023/04/23 11:54:10;;;;;;;5.90;5.50;;;12.70;99.90;;;;;;5072661;28;20441;-52
2023/04/23 11:56:39;;;;;;;5.53;5.13;;;12.80;99.90;;;;;;5073484;28;20472;-53
2023/04/23 11:59:06;;;;;;;5.53;5.13;;;12.80;99.90;;;;;;5071165;28;20955;-53
2023/04/23 12:01:46;;;;;;;6.23;5.70;;;12.90;99.90;;;;;;5073305;28;20461;-52
2023/04/23 12:04:14;;;;;;;6.53;6.00;;;12.90;99.90;;;;;;5069678;28;20497;-52
2023/04/23 12:06:43;;;;;;;7.43;6.73;;;13.00;99.90;;;;;;5067157;28;20465;-53
2023/04/23 12:09:11;;;;;;;8.00;5.87;;;13.20;99.90;;;;;;5062903;28;20876;-52
2023/04/23 12:11:40;;;;;;;6.20;5.80;;;13.20;99.90;;;;;;5071655;28;20993;-53
2023/04/23 12:14:08;;;;;;;6.17;5.67;;;13.20;99.90;;;;;;5073602;28;20461;-52
2023/04/23 12:16:36;;;;;;;7.33;6.73;;;13.20;99.90;;;;;;5066791;28;20528;-52
2023/04/23 12:19:04;;;;;;;7.03;6.50;;;13.30;99.90;;;;;;5071177;28;20481;-52
2023/04/23 12:21:31;;;;;;;6.67;6.13;;;13.40;99.90;;;;;;5070429;28;21028;-56
2023/04/23 12:23:58;;;;;;;9.37;7.20;;;13.30;99.90;;;;;;5077626;28;20499;-57
2023/04/23 12:26:26;;;;;;;7.13;6.60;;;13.40;99.90;;;;;;5070062;28;20877;-57
2023/04/23 12:28:55;;;;;;;8.27;7.23;;;13.50;99.90;;;;;;5074867;28;20947;-52
2023/04/23 12:31:23;;;;;;;8.60;7.90;;;13.70;99.90;;;;;;5067659;28;20826;-53
2023/04/23 12:33:58;;;;;;;9.17;8.00;;;14.00;99.90;;;;;;5076085;28;20479;-51
2023/04/23 12:36:29;;;;;;;8.40;7.70;;;14.20;99.90;;;;;;5075173;28;20464;-48
2023/04/23 12:38:55;;;;;;;9.27;8.37;;;14.50;99.90;;;;;;5072164;28;20499;-48
2023/04/23 12:41:23;;;;;;;10.27;9.37;;;14.80;99.90;;;;;;5070637;28;20906;-50
2023/04/23 12:43:50;;;;;;;9.47;8.67;;;15.20;99.90;;;;;;5073210;28;20943;-48
2023/04/23 12:46:18;;;;;;;11.40;9.37;;;15.70;32.40;;;;;;5079794;28;20464;-58